sensor_id;sensor_type;location;lat;lon;timestamp;P1;durP1;ratioP1;P2;durP2;ratioP2
80273;SDS011;69576;51.902;-8.462;2023-09-19T00:01:39;7.07;;;2.70;;
80273;SDS011;69576;51.902;-8.462;2023-09-19T00:04:07;8.07;;;2.47;;
80273;SDS011;69576;51.902;-8.462;2023-09-19T00:06:39;4.32;;;1.70;;
80273;SDS011;69576;51.902;-8.462;2023-09-19T00:11:36;6.47;;;2.50;;
80273;SDS011;69576;51.902;-8.462;2023-09-19T00:14:03;4.13;;;1.50;;
80273;SDS011;69576;51.902;-8.462;2023-09-19T00:16:29;6.30;;;2.25;;
80273;SDS011;69576;51.902;-8.462;2023-09-19T00:18:57;2.72;;;1.65;;
80273;SDS011;69576;51.902;-8.462;2023-09-19T00:21:26;8.25;;;3.30;;
80273;SDS011;69576;51.902;-8.462;2023-09-19T00:23:53;4.13;;;2.38;;
80273;SDS011;69576;51.902;-8.462;2023-09-19T00:26:19;8.35;;;2.22;;
80273;SDS011;69576;51.902;-8.462;2023-09-19T00:28:46;6.90;;;1.70;;
80273;SDS011;69576;51.902;-8.462;2023-09-19T00:31:13;4.90;;;1.95;;
80273;SDS011;69576;51.902;-8.462;2023-09-19T00:33:39;5.63;;;2.05;;
80273;SDS011;69576;51.902;-8.462;2023-09-19T00:36:05;5.22;;;1.80;;
80273;SDS011;69576;51.902;-8.462;2023-09-19T00:38:31;6.80;;;2.17;;
80273;SDS011;69576;51.902;-8.462;2023-09-19T00:40:57;9.35;;;2.85;;
80273;SDS011;69576;51.902;-8.462;2023-09-19T00:43:24;6.68;;;2.60;;
80273;SDS011;69576;51.902;-8.462;2023-09-19T00:45:53;6.97;;;2.65;;
80273;SDS011;69576;51.902;-8.462;2023-09-19T00:48:20;5.55;;;2.13;;
80273;SDS011;69576;51.902;-8.462;2023-09-19T00:50:47;10.25;;;2.53;;
80273;SDS011;69576;51.902;-8.462;2023-09-19T00:53:15;4.90;;;2.00;;
80273;SDS011;69576;51.902;-8.462;2023-09-19T00:55:48;4.47;;;2.10;;
80273;SDS011;69576;51.902;-8.462;2023-09-19T00:58:20;5.43;;;2.25;;
80273;SDS011;69576;51.902;-8.462;2023-09-19T01:00:48;3.50;;;1.80;;
80273;SDS011;69576;51.902;-8.462;2023-09-19T01:03:18;7.03;;;2.70;;
80273;SDS011;69576;51.902;-8.462;2023-09-19T01:05:44;8.85;;;2.63;;
80273;SDS011;69576;51.902;-8.462;2023-09-19T01:08:10;9.63;;;2.13;;
80273;SDS011;69576;51.902;-8.462;2023-09-19T01:10:46;4.80;;;1.77;;
80273;SDS011;69576;51.902;-8.462;2023-09-19T01:16:15;8.27;;;2.30;;
80273;SDS011;69576;51.902;-8.462;2023-09-19T01:18:55;4.13;;;1.20;;
80273;SDS011;69576;51.902;-8.462;2023-09-19T01:21:44;6.22;;;1.75;;
80273;SDS011;69576;51.902;-8.462;2023-09-19T01:30:14;2.05;;;1.27;;
80273;SDS011;69576;51.902;-8.462;2023-09-19T01:32:47;1.95;;;1.23;;
80273;SDS011;69576;51.902;-8.462;2023-09-19T01:35:17;3.78;;;1.50;;
80273;SDS011;69576;51.902;-8.462;2023-09-19T01:37:44;5.13;;;1.70;;
80273;SDS011;69576;51.902;-8.462;2023-09-19T01:40:12;4.78;;;2.25;;
80273;SDS011;69576;51.902;-8.462;2023-09-19T01:42:44;6.88;;;1.70;;
80273;SDS011;69576;51.902;-8.462;2023-09-19T01:47:41;8.45;;;1.48;;
80273;SDS011;69576;51.902;-8.462;2023-09-19T01:53:03;5.20;;;1.70;;
80273;SDS011;69576;51.902;-8.462;2023-09-19T01:55:45;2.95;;;1.48;;
80273;SDS011;69576;51.902;-8.462;2023-09-19T01:58:24;3.50;;;1.42;;
80273;SDS011;69576;51.902;-8.462;2023-09-19T02:01:01;3.05;;;1.55;;
80273;SDS011;69576;51.902;-8.462;2023-09-19T02:03:28;1.52;;;0.80;;
80273;SDS011;69576;51.902;-8.462;2023-09-19T02:05:58;6.30;;;1.65;;
80273;SDS011;69576;51.902;-8.462;2023-09-19T02:08:26;3.67;;;1.45;;
80273;SDS011;69576;51.902;-8.462;2023-09-19T02:10:52;6.40;;;1.20;;
80273;SDS011;69576;51.902;-8.462;2023-09-19T02:13:20;4.05;;;1.55;;
80273;SDS011;69576;51.902;-8.462;2023-09-19T02:15:52;9.13;;;1.77;;
80273;SDS011;69576;51.902;-8.462;2023-09-19T02:18:17;6.75;;;1.08;;
80273;SDS011;69576;51.902;-8.462;2023-09-19T02:20:43;4.78;;;1.55;;
80273;SDS011;69576;51.902;-8.462;2023-09-19T02:23:09;5.28;;;1.83;;
80273;SDS011;69576;51.902;-8.462;2023-09-19T02:25:36;3.90;;;1.33;;
80273;SDS011;69576;51.902;-8.462;2023-09-19T02:28:03;3.15;;;1.55;;
80273;SDS011;69576;51.902;-8.462;2023-09-19T02:30:32;8.77;;;2.50;;
80273;SDS011;69576;51.902;-8.462;2023-09-19T02:32:58;8.27;;;2.08;;
80273;SDS011;69576;51.902;-8.462;2023-09-19T02:35:28;8.45;;;1.80;;
80273;SDS011;69576;51.902;-8.462;2023-09-19T02:38:00;1.85;;;0.73;;
80273;SDS011;69576;51.902;-8.462;2023-09-19T02:40:26;5.15;;;1.65;;
80273;SDS011;69576;51.902;-8.462;2023-09-19T02:42:53;5.45;;;1.50;;
80273;SDS011;69576;51.902;-8.462;2023-09-19T02:45:24;1.55;;;0.70;;
80273;SDS011;69576;51.902;-8.462;2023-09-19T02:47:50;7.00;;;1.40;;
80273;SDS011;69576;51.902;-8.462;2023-09-19T02:50:18;2.92;;;1.20;;
80273;SDS011;69576;51.902;-8.462;2023-09-19T02:52:44;3.53;;;0.95;;
80273;SDS011;69576;51.902;-8.462;2023-09-19T02:55:13;2.17;;;1.20;;
80273;SDS011;69576;51.902;-8.462;2023-09-19T02:57:53;1.15;;;0.57;;
80273;SDS011;69576;51.902;-8.462;2023-09-19T03:00:22;1.90;;;0.82;;
80273;SDS011;69576;51.902;-8.462;2023-09-19T03:02:58;1.80;;;1.00;;
80273;SDS011;69576;51.902;-8.462;2023-09-19T03:05:24;4.50;;;1.38;;
80273;SDS011;69576;51.902;-8.462;2023-09-19T03:07:53;1.30;;;0.93;;
80273;SDS011;69576;51.902;-8.462;2023-09-19T03:10:20;3.08;;;0.93;;
80273;SDS011;69576;51.902;-8.462;2023-09-19T03:12:49;3.38;;;1.20;;
80273;SDS011;69576;51.902;-8.462;2023-09-19T03:15:15;3.22;;;1.13;;
80273;SDS011;69576;51.902;-8.462;2023-09-19T03:17:46;3.83;;;0.90;;
80273;SDS011;69576;51.902;-8.462;2023-09-19T03:20:13;1.75;;;0.90;;
80273;SDS011;69576;51.902;-8.462;2023-09-19T03:22:42;3.25;;;1.08;;
80273;SDS011;69576;51.902;-8.462;2023-09-19T03:25:11;3.85;;;0.80;;
80273;SDS011;69576;51.902;-8.462;2023-09-19T03:27:37;4.15;;;0.90;;
80273;SDS011;69576;51.902;-8.462;2023-09-19T03:30:04;0.80;;;0.45;;
80273;SDS011;69576;51.902;-8.462;2023-09-19T03:32:33;1.33;;;0.90;;
80273;SDS011;69576;51.902;-8.462;2023-09-19T03:35:08;1.13;;;0.75;;
80273;SDS011;69576;51.902;-8.462;2023-09-19T03:37:41;1.98;;;0.63;;
80273;SDS011;69576;51.902;-8.462;2023-09-19T03:40:11;1.33;;;0.55;;
80273;SDS011;69576;51.902;-8.462;2023-09-19T03:42:40;2.58;;;0.88;;
80273;SDS011;69576;51.902;-8.462;2023-09-19T03:45:07;2.22;;;0.45;;
80273;SDS011;69576;51.902;-8.462;2023-09-19T03:47:37;1.40;;;1.15;;
80273;SDS011;69576;51.902;-8.462;2023-09-19T03:50:04;0.45;;;0.30;;
80273;SDS011;69576;51.902;-8.462;2023-09-19T03:52:30;0.73;;;0.60;;
80273;SDS011;69576;51.902;-8.462;2023-09-19T03:54:56;0.57;;;0.45;;
80273;SDS011;69576;51.902;-8.462;2023-09-19T03:57:22;3.40;;;0.65;;
80273;SDS011;69576;51.902;-8.462;2023-09-19T03:59:48;0.52;;;0.35;;
80273;SDS011;69576;51.902;-8.462;2023-09-19T04:02:14;1.08;;;0.68;;
80273;SDS011;69576;51.902;-8.462;2023-09-19T04:04:50;0.43;;;0.20;;
80273;SDS011;69576;51.902;-8.462;2023-09-19T04:07:17;0.80;;;0.45;;
80273;SDS011;69576;51.902;-8.462;2023-09-19T04:09:47;0.75;;;0.60;;
80273;SDS011;69576;51.902;-8.462;2023-09-19T04:12:14;1.23;;;0.63;;
80273;SDS011;69576;51.902;-8.462;2023-09-19T04:14:42;0.68;;;0.50;;
80273;SDS011;69576;51.902;-8.462;2023-09-19T04:17:08;1.73;;;0.70;;
80273;SDS011;69576;51.902;-8.462;2023-09-19T04:19:35;0.88;;;0.52;;
80273;SDS011;69576;51.902;-8.462;2023-09-19T04:22:01;0.65;;;0.40;;
80273;SDS011;69576;51.902;-8.462;2023-09-19T04:24:27;2.90;;;0.25;;
80273;SDS011;69576;51.902;-8.462;2023-09-19T04:26:52;0.22;;;0.22;;
80273;SDS011;69576;51.902;-8.462;2023-09-19T04:29:18;1.95;;;0.50;;
80273;SDS011;69576;51.902;-8.462;2023-09-19T04:31:45;0.35;;;0.32;;
80273;SDS011;69576;51.902;-8.462;2023-09-19T04:34:13;0.60;;;0.50;;
80273;SDS011;69576;51.902;-8.462;2023-09-19T04:36:44;1.45;;;0.57;;
80273;SDS011;69576;51.902;-8.462;2023-09-19T04:39:10;0.38;;;0.32;;
80273;SDS011;69576;51.902;-8.462;2023-09-19T04:41:37;1.48;;;0.57;;
80273;SDS011;69576;51.902;-8.462;2023-09-19T04:44:06;2.20;;;0.77;;
80273;SDS011;69576;51.902;-8.462;2023-09-19T04:46:33;0.30;;;0.28;;
80273;SDS011;69576;51.902;-8.462;2023-09-19T04:48:59;1.08;;;0.73;;
80273;SDS011;69576;51.902;-8.462;2023-09-19T04:51:28;2.88;;;0.70;;
80273;SDS011;69576;51.902;-8.462;2023-09-19T04:53:59;1.08;;;0.70;;
80273;SDS011;69576;51.902;-8.462;2023-09-19T04:56:25;1.23;;;0.60;;
80273;SDS011;69576;51.902;-8.462;2023-09-19T04:58:55;0.38;;;0.38;;
80273;SDS011;69576;51.902;-8.462;2023-09-19T05:01:23;0.22;;;0.22;;
80273;SDS011;69576;51.902;-8.462;2023-09-19T05:03:52;0.20;;;0.20;;
80273;SDS011;69576;51.902;-8.462;2023-09-19T05:06:21;0.50;;;0.20;;
80273;SDS011;69576;51.902;-8.462;2023-09-19T05:08:51;0.20;;;0.20;;
80273;SDS011;69576;51.902;-8.462;2023-09-19T05:11:20;0.20;;;0.20;;
80273;SDS011;69576;51.902;-8.462;2023-09-19T05:13:48;1.67;;;0.63;;
80273;SDS011;69576;51.902;-8.462;2023-09-19T05:16:15;0.80;;;0.35;;
80273;SDS011;69576;51.902;-8.462;2023-09-19T05:18:42;0.70;;;0.50;;
80273;SDS011;69576;51.902;-8.462;2023-09-19T05:21:07;0.20;;;0.20;;
80273;SDS011;69576;51.902;-8.462;2023-09-19T05:23:33;1.80;;;0.73;;
80273;SDS011;69576;51.902;-8.462;2023-09-19T05:25:59;0.55;;;0.22;;
80273;SDS011;69576;51.902;-8.462;2023-09-19T05:28:27;0.50;;;0.50;;
80273;SDS011;69576;51.902;-8.462;2023-09-19T05:30:55;0.85;;;0.40;;
80273;SDS011;69576;51.902;-8.462;2023-09-19T05:33:21;1.73;;;0.70;;
80273;SDS011;69576;51.902;-8.462;2023-09-19T05:35:50;0.43;;;0.43;;
80273;SDS011;69576;51.902;-8.462;2023-09-19T05:38:15;0.70;;;0.50;;
80273;SDS011;69576;51.902;-8.462;2023-09-19T05:40:44;1.05;;;0.43;;
80273;SDS011;69576;51.902;-8.462;2023-09-19T05:43:10;0.55;;;0.40;;
80273;SDS011;69576;51.902;-8.462;2023-09-19T05:45:36;0.75;;;0.73;;
80273;SDS011;69576;51.902;-8.462;2023-09-19T05:48:12;0.52;;;0.40;;
80273;SDS011;69576;51.902;-8.462;2023-09-19T05:50:39;2.20;;;0.50;;
80273;SDS011;69576;51.902;-8.462;2023-09-19T05:53:07;0.10;;;0.10;;
80273;SDS011;69576;51.902;-8.462;2023-09-19T05:55:37;0.93;;;0.40;;
80273;SDS011;69576;51.902;-8.462;2023-09-19T05:58:02;1.05;;;0.63;;
80273;SDS011;69576;51.902;-8.462;2023-09-19T06:00:31;0.82;;;0.43;;
80273;SDS011;69576;51.902;-8.462;2023-09-19T06:02:57;1.17;;;0.45;;
80273;SDS011;69576;51.902;-8.462;2023-09-19T06:05:25;0.15;;;0.15;;
80273;SDS011;69576;51.902;-8.462;2023-09-19T06:07:57;1.15;;;0.40;;
80273;SDS011;69576;51.902;-8.462;2023-09-19T06:10:26;1.20;;;0.30;;
80273;SDS011;69576;51.902;-8.462;2023-09-19T06:12:57;0.43;;;0.20;;
80273;SDS011;69576;51.902;-8.462;2023-09-19T06:15:25;1.30;;;0.68;;
80273;SDS011;69576;51.902;-8.462;2023-09-19T06:20:21;0.15;;;0.15;;
80273;SDS011;69576;51.902;-8.462;2023-09-19T06:22:50;0.32;;;0.32;;
80273;SDS011;69576;51.902;-8.462;2023-09-19T06:25:17;0.20;;;0.20;;
80273;SDS011;69576;51.902;-8.462;2023-09-19T06:27:50;1.45;;;0.50;;
80273;SDS011;69576;51.902;-8.462;2023-09-19T06:30:18;1.92;;;0.82;;
80273;SDS011;69576;51.902;-8.462;2023-09-19T06:32:44;1.35;;;0.35;;
80273;SDS011;69576;51.902;-8.462;2023-09-19T06:35:11;0.52;;;0.35;;
80273;SDS011;69576;51.902;-8.462;2023-09-19T06:37:38;4.07;;;0.88;;
80273;SDS011;69576;51.902;-8.462;2023-09-19T06:42:40;0.95;;;0.57;;
80273;SDS011;69576;51.902;-8.462;2023-09-19T06:45:10;1.77;;;0.57;;
80273;SDS011;69576;51.902;-8.462;2023-09-19T06:47:39;2.75;;;0.40;;
80273;SDS011;69576;51.902;-8.462;2023-09-19T06:50:08;3.58;;;0.70;;
80273;SDS011;69576;51.902;-8.462;2023-09-19T06:52:38;0.20;;;0.20;;
80273;SDS011;69576;51.902;-8.462;2023-09-19T06:55:03;0.30;;;0.30;;
80273;SDS011;69576;51.902;-8.462;2023-09-19T06:57:32;1.67;;;0.50;;
80273;SDS011;69576;51.902;-8.462;2023-09-19T06:59:57;0.32;;;0.32;;
80273;SDS011;69576;51.902;-8.462;2023-09-19T07:02:23;5.35;;;0.68;;
80273;SDS011;69576;51.902;-8.462;2023-09-19T07:04:49;1.70;;;0.82;;
80273;SDS011;69576;51.902;-8.462;2023-09-19T07:07:15;0.40;;;0.40;;
80273;SDS011;69576;51.902;-8.462;2023-09-19T07:09:41;1.23;;;0.60;;
80273;SDS011;69576;51.902;-8.462;2023-09-19T07:12:07;0.35;;;0.30;;
80273;SDS011;69576;51.902;-8.462;2023-09-19T07:14:33;0.20;;;0.20;;
80273;SDS011;69576;51.902;-8.462;2023-09-19T07:16:58;1.42;;;0.60;;
80273;SDS011;69576;51.902;-8.462;2023-09-19T07:19:29;0.80;;;0.52;;
80273;SDS011;69576;51.902;-8.462;2023-09-19T07:21:56;0.15;;;0.15;;
80273;SDS011;69576;51.902;-8.462;2023-09-19T07:24:27;0.63;;;0.57;;
80273;SDS011;69576;51.902;-8.462;2023-09-19T07:29:24;2.22;;;0.77;;
80273;SDS011;69576;51.902;-8.462;2023-09-19T07:31:51;0.55;;;0.40;;
80273;SDS011;69576;51.902;-8.462;2023-09-19T07:34:17;2.72;;;0.80;;
80273;SDS011;69576;51.902;-8.462;2023-09-19T07:36:46;1.73;;;0.70;;
80273;SDS011;69576;51.902;-8.462;2023-09-19T07:39:13;1.55;;;0.70;;
80273;SDS011;69576;51.902;-8.462;2023-09-19T07:41:38;0.75;;;0.38;;
80273;SDS011;69576;51.902;-8.462;2023-09-19T07:44:04;2.67;;;1.00;;
80273;SDS011;69576;51.902;-8.462;2023-09-19T07:46:32;0.68;;;0.52;;
80273;SDS011;69576;51.902;-8.462;2023-09-19T07:48:58;3.08;;;0.80;;
80273;SDS011;69576;51.902;-8.462;2023-09-19T07:51:25;3.20;;;1.00;;
80273;SDS011;69576;51.902;-8.462;2023-09-19T07:53:52;0.75;;;0.68;;
80273;SDS011;69576;51.902;-8.462;2023-09-19T07:56:20;1.73;;;0.75;;
80273;SDS011;69576;51.902;-8.462;2023-09-19T07:58:46;2.38;;;1.00;;
80273;SDS011;69576;51.902;-8.462;2023-09-19T08:01:14;1.00;;;0.47;;
80273;SDS011;69576;51.902;-8.462;2023-09-19T08:03:41;0.98;;;0.63;;
80273;SDS011;69576;51.902;-8.462;2023-09-19T08:06:08;0.85;;;0.45;;
80273;SDS011;69576;51.902;-8.462;2023-09-19T08:08:36;0.38;;;0.38;;
80273;SDS011;69576;51.902;-8.462;2023-09-19T08:11:03;0.50;;;0.38;;
80273;SDS011;69576;51.902;-8.462;2023-09-19T08:13:38;0.65;;;0.47;;
80273;SDS011;69576;51.902;-8.462;2023-09-19T08:16:08;0.60;;;0.25;;
80273;SDS011;69576;51.902;-8.462;2023-09-19T08:21:05;0.20;;;0.20;;
80273;SDS011;69576;51.902;-8.462;2023-09-19T08:23:39;1.38;;;0.70;;
80273;SDS011;69576;51.902;-8.462;2023-09-19T08:26:05;0.25;;;0.25;;
80273;SDS011;69576;51.902;-8.462;2023-09-19T08:31:06;3.38;;;0.88;;
80273;SDS011;69576;51.902;-8.462;2023-09-19T08:33:33;0.63;;;0.47;;
80273;SDS011;69576;51.902;-8.462;2023-09-19T08:36:05;5.95;;;1.55;;
80273;SDS011;69576;51.902;-8.462;2023-09-19T08:38:33;2.45;;;0.45;;
80273;SDS011;69576;51.902;-8.462;2023-09-19T08:41:06;3.75;;;1.50;;
80273;SDS011;69576;51.902;-8.462;2023-09-19T08:43:33;1.77;;;0.77;;
80273;SDS011;69576;51.902;-8.462;2023-09-19T08:48:42;1.88;;;1.67;;
80273;SDS011;69576;51.902;-8.462;2023-09-19T08:51:41;5.43;;;1.35;;
80273;SDS011;69576;51.902;-8.462;2023-09-19T08:54:21;3.80;;;1.20;;
80273;SDS011;69576;51.902;-8.462;2023-09-19T08:56:56;6.03;;;2.05;;
80273;SDS011;69576;51.902;-8.462;2023-09-19T08:59:27;4.78;;;1.35;;
80273;SDS011;69576;51.902;-8.462;2023-09-19T09:01:54;3.50;;;1.33;;
80273;SDS011;69576;51.902;-8.462;2023-09-19T09:04:22;4.07;;;1.35;;
80273;SDS011;69576;51.902;-8.462;2023-09-19T09:06:51;7.63;;;1.98;;
80273;SDS011;69576;51.902;-8.462;2023-09-19T09:09:22;6.68;;;1.88;;
80273;SDS011;69576;51.902;-8.462;2023-09-19T09:11:50;3.63;;;0.60;;
80273;SDS011;69576;51.902;-8.462;2023-09-19T09:14:18;5.20;;;1.33;;
80273;SDS011;69576;51.902;-8.462;2023-09-19T09:16:46;4.70;;;1.20;;
80273;SDS011;69576;51.902;-8.462;2023-09-19T09:19:13;1.60;;;0.57;;
80273;SDS011;69576;51.902;-8.462;2023-09-19T09:21:45;9.32;;;2.00;;
80273;SDS011;69576;51.902;-8.462;2023-09-19T09:24:28;12.10;;;1.98;;
80273;SDS011;69576;51.902;-8.462;2023-09-19T09:26:54;3.72;;;1.23;;
80273;SDS011;69576;51.902;-8.462;2023-09-19T09:29:41;6.88;;;1.25;;
80273;SDS011;69576;51.902;-8.462;2023-09-19T09:32:19;4.13;;;1.80;;
80273;SDS011;69576;51.902;-8.462;2023-09-19T09:34:54;5.18;;;1.02;;
80273;SDS011;69576;51.902;-8.462;2023-09-19T09:37:23;6.75;;;1.38;;
80273;SDS011;69576;51.902;-8.462;2023-09-19T09:39:58;4.78;;;1.17;;
80273;SDS011;69576;51.902;-8.462;2023-09-19T09:42:44;3.20;;;1.48;;
80273;SDS011;69576;51.902;-8.462;2023-09-19T09:45:18;6.40;;;1.30;;
80273;SDS011;69576;51.902;-8.462;2023-09-19T09:47:58;1.80;;;1.63;;
80273;SDS011;69576;51.902;-8.462;2023-09-19T09:50:32;2.47;;;2.05;;
80273;SDS011;69576;51.902;-8.462;2023-09-19T09:58:34;6.47;;;1.17;;
80273;SDS011;69576;51.902;-8.462;2023-09-19T10:01:01;3.30;;;1.30;;
80273;SDS011;69576;51.902;-8.462;2023-09-19T10:03:43;0.75;;;0.63;;
80273;SDS011;69576;51.902;-8.462;2023-09-19T10:06:13;3.40;;;0.93;;
80273;SDS011;69576;51.902;-8.462;2023-09-19T10:09:00;1.98;;;0.85;;
80273;SDS011;69576;51.902;-8.462;2023-09-19T10:12:22;2.15;;;0.80;;
80273;SDS011;69576;51.902;-8.462;2023-09-19T10:14:33;3.47;;;1.25;;
80273;SDS011;69576;51.902;-8.462;2023-09-19T10:17:08;4.82;;;1.17;;
80273;SDS011;69576;51.902;-8.462;2023-09-19T10:22:11;4.28;;;1.48;;
80273;SDS011;69576;51.902;-8.462;2023-09-19T10:24:45;4.28;;;1.13;;
80273;SDS011;69576;51.902;-8.462;2023-09-19T10:27:12;3.42;;;1.00;;
80273;SDS011;69576;51.902;-8.462;2023-09-19T10:29:41;1.70;;;0.90;;
80273;SDS011;69576;51.902;-8.462;2023-09-19T10:32:14;6.10;;;1.50;;
80273;SDS011;69576;51.902;-8.462;2023-09-19T10:34:44;4.68;;;1.35;;
80273;SDS011;69576;51.902;-8.462;2023-09-19T10:37:12;5.40;;;1.92;;
80273;SDS011;69576;51.902;-8.462;2023-09-19T10:39:42;4.75;;;1.38;;
80273;SDS011;69576;51.902;-8.462;2023-09-19T10:42:14;2.72;;;1.55;;
80273;SDS011;69576;51.902;-8.462;2023-09-19T10:44:46;5.65;;;1.48;;
80273;SDS011;69576;51.902;-8.462;2023-09-19T10:47:19;5.65;;;1.38;;
80273;SDS011;69576;51.902;-8.462;2023-09-19T10:49:51;3.22;;;1.50;;
80273;SDS011;69576;51.902;-8.462;2023-09-19T10:52:21;6.40;;;1.67;;
80273;SDS011;69576;51.902;-8.462;2023-09-19T10:54:51;7.93;;;1.15;;
80273;SDS011;69576;51.902;-8.462;2023-09-19T10:57:22;7.47;;;1.42;;
80273;SDS011;69576;51.902;-8.462;2023-09-19T11:00:04;6.90;;;2.15;;
80273;SDS011;69576;51.902;-8.462;2023-09-19T11:05:59;11.18;;;1.92;;
80273;SDS011;69576;51.902;-8.462;2023-09-19T11:09:00;9.10;;;2.30;;
80273;SDS011;69576;51.902;-8.462;2023-09-19T11:30:33;3.75;;;1.50;;
80273;SDS011;69576;51.902;-8.462;2023-09-19T11:36:00;9.23;;;2.58;;
80273;SDS011;69576;51.902;-8.462;2023-09-19T11:43:50;4.60;;;2.05;;
80273;SDS011;69576;51.902;-8.462;2023-09-19T11:46:25;7.53;;;1.20;;
80273;SDS011;69576;51.902;-8.462;2023-09-19T11:48:53;5.68;;;2.10;;
80273;SDS011;69576;51.902;-8.462;2023-09-19T11:51:21;9.55;;;2.00;;
80273;SDS011;69576;51.902;-8.462;2023-09-19T11:53:52;4.63;;;1.38;;
80273;SDS011;69576;51.902;-8.462;2023-09-19T11:56:20;11.68;;;2.38;;
80273;SDS011;69576;51.902;-8.462;2023-09-19T11:58:49;2.15;;;1.30;;
80273;SDS011;69576;51.902;-8.462;2023-09-19T12:03:54;4.18;;;1.40;;
80273;SDS011;69576;51.902;-8.462;2023-09-19T12:06:28;5.07;;;1.48;;
80273;SDS011;69576;51.902;-8.462;2023-09-19T12:08:55;2.00;;;0.88;;
80273;SDS011;69576;51.902;-8.462;2023-09-19T12:11:28;3.92;;;1.27;;
80273;SDS011;69576;51.902;-8.462;2023-09-19T12:18:55;0.93;;;0.70;;
80273;SDS011;69576;51.902;-8.462;2023-09-19T12:26:30;1.52;;;1.25;;
80273;SDS011;69576;51.902;-8.462;2023-09-19T12:29:20;6.05;;;1.35;;
80273;SDS011;69576;51.902;-8.462;2023-09-19T12:31:56;5.00;;;1.48;;
80273;SDS011;69576;51.902;-8.462;2023-09-19T12:34:23;2.63;;;1.88;;
80273;SDS011;69576;51.902;-8.462;2023-09-19T12:37:05;7.55;;;2.08;;
80273;SDS011;69576;51.902;-8.462;2023-09-19T12:39:45;5.05;;;2.08;;
80273;SDS011;69576;51.902;-8.462;2023-09-19T12:42:14;1.65;;;0.65;;
80273;SDS011;69576;51.902;-8.462;2023-09-19T12:44:44;5.63;;;1.98;;
80273;SDS011;69576;51.902;-8.462;2023-09-19T12:47:20;4.72;;;1.50;;
80273;SDS011;69576;51.902;-8.462;2023-09-19T12:52:38;4.35;;;1.70;;
80273;SDS011;69576;51.902;-8.462;2023-09-19T12:55:23;6.22;;;1.42;;
80273;SDS011;69576;51.902;-8.462;2023-09-19T13:00:57;9.85;;;2.55;;
80273;SDS011;69576;51.902;-8.462;2023-09-19T13:05:58;7.72;;;2.38;;
80273;SDS011;69576;51.902;-8.462;2023-09-19T13:08:26;4.18;;;1.75;;
80273;SDS011;69576;51.902;-8.462;2023-09-19T13:11:14;8.18;;;1.85;;
80273;SDS011;69576;51.902;-8.462;2023-09-19T13:13:45;10.63;;;2.67;;
80273;SDS011;69576;51.902;-8.462;2023-09-19T13:16:30;12.45;;;2.42;;
80273;SDS011;69576;51.902;-8.462;2023-09-19T13:18:56;10.15;;;1.95;;
80273;SDS011;69576;51.902;-8.462;2023-09-19T13:21:29;2.17;;;1.30;;
80273;SDS011;69576;51.902;-8.462;2023-09-19T13:24:21;9.25;;;2.17;;
80273;SDS011;69576;51.902;-8.462;2023-09-19T13:26:50;6.93;;;2.53;;
80273;SDS011;69576;51.902;-8.462;2023-09-19T13:29:16;2.05;;;1.05;;
80273;SDS011;69576;51.902;-8.462;2023-09-19T13:31:49;6.63;;;1.70;;
80273;SDS011;69576;51.902;-8.462;2023-09-19T13:34:18;6.78;;;1.83;;
80273;SDS011;69576;51.902;-8.462;2023-09-19T13:36:45;7.30;;;1.95;;
80273;SDS011;69576;51.902;-8.462;2023-09-19T13:39:13;11.65;;;2.42;;
80273;SDS011;69576;51.902;-8.462;2023-09-19T13:41:49;6.00;;;1.80;;
80273;SDS011;69576;51.902;-8.462;2023-09-19T13:44:16;5.63;;;1.23;;
80273;SDS011;69576;51.902;-8.462;2023-09-19T13:46:44;7.50;;;2.28;;
80273;SDS011;69576;51.902;-8.462;2023-09-19T13:49:11;3.33;;;1.02;;
80273;SDS011;69576;51.902;-8.462;2023-09-19T13:51:39;4.07;;;1.58;;
80273;SDS011;69576;51.902;-8.462;2023-09-19T13:54:08;5.53;;;1.50;;
80273;SDS011;69576;51.902;-8.462;2023-09-19T13:56:35;2.92;;;1.20;;
80273;SDS011;69576;51.902;-8.462;2023-09-19T13:59:01;9.30;;;1.83;;
80273;SDS011;69576;51.902;-8.462;2023-09-19T14:01:29;4.05;;;1.60;;
80273;SDS011;69576;51.902;-8.462;2023-09-19T14:03:58;6.95;;;1.95;;
80273;SDS011;69576;51.902;-8.462;2023-09-19T14:06:24;5.53;;;1.33;;
80273;SDS011;69576;51.902;-8.462;2023-09-19T14:08:50;5.05;;;1.48;;
80273;SDS011;69576;51.902;-8.462;2023-09-19T14:11:16;8.93;;;1.73;;
80273;SDS011;69576;51.902;-8.462;2023-09-19T14:13:41;3.17;;;1.33;;
80273;SDS011;69576;51.902;-8.462;2023-09-19T14:16:13;10.02;;;2.63;;
80273;SDS011;69576;51.902;-8.462;2023-09-19T14:18:39;2.38;;;1.80;;
80273;SDS011;69576;51.902;-8.462;2023-09-19T14:21:05;9.38;;;2.95;;
80273;SDS011;69576;51.902;-8.462;2023-09-19T14:23:39;6.80;;;3.67;;
80273;SDS011;69576;51.902;-8.462;2023-09-19T14:26:06;7.97;;;2.05;;
80273;SDS011;69576;51.902;-8.462;2023-09-19T14:28:34;7.53;;;2.30;;
80273;SDS011;69576;51.902;-8.462;2023-09-19T14:31:07;4.07;;;1.48;;
80273;SDS011;69576;51.902;-8.462;2023-09-19T14:36:04;7.60;;;1.65;;
80273;SDS011;69576;51.902;-8.462;2023-09-19T14:38:37;1.40;;;0.73;;
80273;SDS011;69576;51.902;-8.462;2023-09-19T14:41:03;3.13;;;1.23;;
80273;SDS011;69576;51.902;-8.462;2023-09-19T14:43:30;4.80;;;1.33;;
80273;SDS011;69576;51.902;-8.462;2023-09-19T14:45:57;4.30;;;1.42;;
80273;SDS011;69576;51.902;-8.462;2023-09-19T14:48:35;6.80;;;2.08;;
80273;SDS011;69576;51.902;-8.462;2023-09-19T14:51:05;3.50;;;1.73;;
80273;SDS011;69576;51.902;-8.462;2023-09-19T14:53:33;4.18;;;1.90;;
80273;SDS011;69576;51.902;-8.462;2023-09-19T14:56:00;4.95;;;1.73;;
80273;SDS011;69576;51.902;-8.462;2023-09-19T14:58:32;3.30;;;2.47;;
80273;SDS011;69576;51.902;-8.462;2023-09-19T15:01:04;3.95;;;1.38;;
80273;SDS011;69576;51.902;-8.462;2023-09-19T15:03:32;10.63;;;2.53;;
80273;SDS011;69576;51.902;-8.462;2023-09-19T15:06:02;6.60;;;1.70;;
80273;SDS011;69576;51.902;-8.462;2023-09-19T15:08:32;2.80;;;1.17;;
80273;SDS011;69576;51.902;-8.462;2023-09-19T15:11:06;7.45;;;2.13;;
80273;SDS011;69576;51.902;-8.462;2023-09-19T15:13:35;2.58;;;1.25;;
80273;SDS011;69576;51.902;-8.462;2023-09-19T15:16:02;4.63;;;1.70;;
80273;SDS011;69576;51.902;-8.462;2023-09-19T15:18:29;6.90;;;1.88;;
80273;SDS011;69576;51.902;-8.462;2023-09-19T15:21:01;7.05;;;1.88;;
80273;SDS011;69576;51.902;-8.462;2023-09-19T15:23:29;8.35;;;2.13;;
80273;SDS011;69576;51.902;-8.462;2023-09-19T15:25:57;4.70;;;1.95;;
80273;SDS011;69576;51.902;-8.462;2023-09-19T15:28:23;5.40;;;2.22;;
80273;SDS011;69576;51.902;-8.462;2023-09-19T15:30:56;7.40;;;2.20;;
80273;SDS011;69576;51.902;-8.462;2023-09-19T15:33:25;3.50;;;1.40;;
80273;SDS011;69576;51.902;-8.462;2023-09-19T15:36:27;5.40;;;1.73;;
80273;SDS011;69576;51.902;-8.462;2023-09-19T15:39:05;5.13;;;1.92;;
80273;SDS011;69576;51.902;-8.462;2023-09-19T15:41:39;5.82;;;1.77;;
80273;SDS011;69576;51.902;-8.462;2023-09-19T15:44:13;8.88;;;1.95;;
80273;SDS011;69576;51.902;-8.462;2023-09-19T15:46:42;12.60;;;2.40;;
80273;SDS011;69576;51.902;-8.462;2023-09-19T15:49:09;8.55;;;1.88;;
80273;SDS011;69576;51.902;-8.462;2023-09-19T15:51:35;5.70;;;1.70;;
80273;SDS011;69576;51.902;-8.462;2023-09-19T15:54:09;10.65;;;2.55;;
80273;SDS011;69576;51.902;-8.462;2023-09-19T15:56:43;5.68;;;1.50;;
80273;SDS011;69576;51.902;-8.462;2023-09-19T15:59:10;5.65;;;1.55;;
80273;SDS011;69576;51.902;-8.462;2023-09-19T16:01:40;9.60;;;2.83;;
80273;SDS011;69576;51.902;-8.462;2023-09-19T16:04:07;11.30;;;2.53;;
80273;SDS011;69576;51.902;-8.462;2023-09-19T16:06:37;9.00;;;2.47;;
80273;SDS011;69576;51.902;-8.462;2023-09-19T16:09:03;3.88;;;1.25;;
80273;SDS011;69576;51.902;-8.462;2023-09-19T16:11:31;5.32;;;1.60;;
80273;SDS011;69576;51.902;-8.462;2023-09-19T16:13:58;11.13;;;2.78;;
80273;SDS011;69576;51.902;-8.462;2023-09-19T16:16:26;11.95;;;2.22;;
80273;SDS011;69576;51.902;-8.462;2023-09-19T16:18:58;4.43;;;1.80;;
80273;SDS011;69576;51.902;-8.462;2023-09-19T16:21:31;6.30;;;1.73;;
80273;SDS011;69576;51.902;-8.462;2023-09-19T16:23:59;10.40;;;1.85;;